sensor_id;sensor_type;location;lat;lon;timestamp;P1;durP1;ratioP1;P2;durP2;ratioP2
52354;SDS011;38286;51.156;17.038;2023-03-31T00:02:02;5.80;;;2.58;;
52354;SDS011;38286;51.156;17.038;2023-03-31T00:04:41;5.95;;;2.55;;
52354;SDS011;38286;51.156;17.038;2023-03-31T00:07:27;7.82;;;2.67;;
52354;SDS011;38286;51.156;17.038;2023-03-31T00:09:53;4.60;;;2.72;;
52354;SDS011;38286;51.156;17.038;2023-03-31T00:12:22;5.40;;;2.75;;
52354;SDS011;38286;51.156;17.038;2023-03-31T00:14:48;6.05;;;3.58;;
52354;SDS011;38286;51.156;17.038;2023-03-31T00:17:14;9.77;;;3.50;;
52354;SDS011;38286;51.156;17.038;2023-03-31T00:19:40;5.03;;;3.50;;
52354;SDS011;38286;51.156;17.038;2023-03-31T00:22:07;9.15;;;3.50;;
52354;SDS011;38286;51.156;17.038;2023-03-31T00:24:33;6.72;;;3.47;;
52354;SDS011;38286;51.156;17.038;2023-03-31T00:27:00;7.35;;;3.10;;
52354;SDS011;38286;51.156;17.038;2023-03-31T00:29:26;5.70;;;3.55;;
52354;SDS011;38286;51.156;17.038;2023-03-31T00:31:53;6.85;;;3.53;;
52354;SDS011;38286;51.156;17.038;2023-03-31T00:34:19;6.15;;;3.10;;
52354;SDS011;38286;51.156;17.038;2023-03-31T00:36:46;7.22;;;3.60;;
52354;SDS011;38286;51.156;17.038;2023-03-31T00:39:13;8.90;;;4.00;;
52354;SDS011;38286;51.156;17.038;2023-03-31T00:41:41;7.43;;;3.85;;
52354;SDS011;38286;51.156;17.038;2023-03-31T00:44:12;7.47;;;3.72;;
52354;SDS011;38286;51.156;17.038;2023-03-31T00:46:50;7.13;;;3.58;;
52354;SDS011;38286;51.156;17.038;2023-03-31T00:49:18;5.43;;;3.50;;
52354;SDS011;38286;51.156;17.038;2023-03-31T00:51:50;7.13;;;4.00;;
52354;SDS011;38286;51.156;17.038;2023-03-31T00:54:18;6.88;;;3.88;;
52354;SDS011;38286;51.156;17.038;2023-03-31T00:56:47;8.85;;;4.13;;
52354;SDS011;38286;51.156;17.038;2023-03-31T00:59:14;6.20;;;3.50;;
52354;SDS011;38286;51.156;17.038;2023-03-31T01:01:41;6.07;;;3.72;;
52354;SDS011;38286;51.156;17.038;2023-03-31T01:04:10;6.32;;;3.80;;
52354;SDS011;38286;51.156;17.038;2023-03-31T01:06:39;8.32;;;4.30;;
52354;SDS011;38286;51.156;17.038;2023-03-31T01:09:11;7.63;;;3.90;;
52354;SDS011;38286;51.156;17.038;2023-03-31T01:11:39;7.65;;;4.38;;
52354;SDS011;38286;51.156;17.038;2023-03-31T01:14:05;8.63;;;4.38;;
52354;SDS011;38286;51.156;17.038;2023-03-31T01:16:31;13.68;;;5.93;;
52354;SDS011;38286;51.156;17.038;2023-03-31T01:18:58;14.20;;;6.38;;
52354;SDS011;38286;51.156;17.038;2023-03-31T01:21:36;15.38;;;7.32;;
52354;SDS011;38286;51.156;17.038;2023-03-31T01:27:10;17.58;;;8.70;;
52354;SDS011;38286;51.156;17.038;2023-03-31T01:29:58;19.13;;;9.25;;
52354;SDS011;38286;51.156;17.038;2023-03-31T01:32:48;16.83;;;7.72;;
52354;SDS011;38286;51.156;17.038;2023-03-31T01:46:53;14.88;;;6.28;;
52354;SDS011;38286;51.156;17.038;2023-03-31T01:52:20;11.38;;;6.07;;
52354;SDS011;38286;51.156;17.038;2023-03-31T01:54:53;11.55;;;5.47;;
52354;SDS011;38286;51.156;17.038;2023-03-31T01:57:31;17.25;;;6.18;;
52354;SDS011;38286;51.156;17.038;2023-03-31T02:02:37;9.48;;;5.65;;
52354;SDS011;38286;51.156;17.038;2023-03-31T02:05:11;11.15;;;5.53;;
52354;SDS011;38286;51.156;17.038;2023-03-31T02:07:41;12.05;;;5.65;;
52354;SDS011;38286;51.156;17.038;2023-03-31T02:10:09;10.63;;;5.30;;
52354;SDS011;38286;51.156;17.038;2023-03-31T02:12:37;11.15;;;5.80;;
52354;SDS011;38286;51.156;17.038;2023-03-31T02:15:06;14.07;;;6.20;;
52354;SDS011;38286;51.156;17.038;2023-03-31T02:17:35;10.43;;;6.00;;
52354;SDS011;38286;51.156;17.038;2023-03-31T02:20:09;13.05;;;6.28;;
52354;SDS011;38286;51.156;17.038;2023-03-31T02:22:37;10.05;;;6.05;;
52354;SDS011;38286;51.156;17.038;2023-03-31T02:25:05;12.35;;;7.00;;
52354;SDS011;38286;51.156;17.038;2023-03-31T02:27:40;14.43;;;6.75;;
52354;SDS011;38286;51.156;17.038;2023-03-31T02:30:09;14.93;;;7.38;;
52354;SDS011;38286;51.156;17.038;2023-03-31T02:32:37;15.63;;;8.15;;
52354;SDS011;38286;51.156;17.038;2023-03-31T02:35:05;18.98;;;10.43;;
52354;SDS011;38286;51.156;17.038;2023-03-31T02:37:34;21.52;;;9.85;;
52354;SDS011;38286;51.156;17.038;2023-03-31T02:40:02;24.88;;;10.93;;
52354;SDS011;38286;51.156;17.038;2023-03-31T02:42:36;22.17;;;11.10;;
52354;SDS011;38286;51.156;17.038;2023-03-31T02:45:03;16.23;;;9.32;;
52354;SDS011;38286;51.156;17.038;2023-03-31T02:47:30;19.48;;;9.15;;
52354;SDS011;38286;51.156;17.038;2023-03-31T02:49:58;15.73;;;8.88;;
52354;SDS011;38286;51.156;17.038;2023-03-31T02:58:34;16.17;;;8.80;;
52354;SDS011;38286;51.156;17.038;2023-03-31T03:01:33;22.87;;;11.00;;
52354;SDS011;38286;51.156;17.038;2023-03-31T03:06:43;25.40;;;11.27;;
52354;SDS011;38286;51.156;17.038;2023-03-31T03:17:46;29.80;;;13.70;;
52354;SDS011;38286;51.156;17.038;2023-03-31T03:20:13;26.15;;;13.85;;
52354;SDS011;38286;51.156;17.038;2023-03-31T03:22:40;25.80;;;13.93;;
52354;SDS011;38286;51.156;17.038;2023-03-31T03:25:07;23.50;;;13.23;;
52354;SDS011;38286;51.156;17.038;2023-03-31T03:27:36;23.42;;;12.90;;
52354;SDS011;38286;51.156;17.038;2023-03-31T03:30:03;23.92;;;12.02;;
52354;SDS011;38286;51.156;17.038;2023-03-31T03:32:31;20.33;;;11.10;;
52354;SDS011;38286;51.156;17.038;2023-03-31T03:35:01;20.60;;;11.35;;
52354;SDS011;38286;51.156;17.038;2023-03-31T03:37:28;20.02;;;10.50;;
52354;SDS011;38286;51.156;17.038;2023-03-31T03:39:55;17.83;;;10.32;;
52354;SDS011;38286;51.156;17.038;2023-03-31T03:42:21;18.17;;;10.80;;
52354;SDS011;38286;51.156;17.038;2023-03-31T03:44:47;18.73;;;10.50;;
52354;SDS011;38286;51.156;17.038;2023-03-31T03:47:13;17.73;;;10.45;;
52354;SDS011;38286;51.156;17.038;2023-03-31T03:49:39;16.90;;;10.38;;
52354;SDS011;38286;51.156;17.038;2023-03-31T03:52:05;18.58;;;10.05;;
52354;SDS011;38286;51.156;17.038;2023-03-31T03:54:32;15.13;;;9.73;;
52354;SDS011;38286;51.156;17.038;2023-03-31T03:56:58;18.98;;;9.65;;
52354;SDS011;38286;51.156;17.038;2023-03-31T03:59:24;17.02;;;9.85;;
52354;SDS011;38286;51.156;17.038;2023-03-31T04:01:50;18.67;;;10.00;;
52354;SDS011;38286;51.156;17.038;2023-03-31T04:04:17;17.20;;;9.60;;
52354;SDS011;38286;51.156;17.038;2023-03-31T04:06:43;18.90;;;10.65;;
52354;SDS011;38286;51.156;17.038;2023-03-31T04:09:09;17.02;;;9.55;;
52354;SDS011;38286;51.156;17.038;2023-03-31T04:11:35;15.82;;;9.90;;
52354;SDS011;38286;51.156;17.038;2023-03-31T04:14:01;15.48;;;10.13;;
52354;SDS011;38286;51.156;17.038;2023-03-31T04:16:27;17.02;;;10.57;;
52354;SDS011;38286;51.156;17.038;2023-03-31T04:18:55;16.38;;;10.27;;
52354;SDS011;38286;51.156;17.038;2023-03-31T04:21:23;17.50;;;10.68;;
52354;SDS011;38286;51.156;17.038;2023-03-31T04:23:50;19.13;;;10.60;;
52354;SDS011;38286;51.156;17.038;2023-03-31T04:29:11;18.15;;;10.40;;
52354;SDS011;38286;51.156;17.038;2023-03-31T04:31:39;21.05;;;11.35;;
52354;SDS011;38286;51.156;17.038;2023-03-31T04:34:08;17.40;;;10.57;;
52354;SDS011;38286;51.156;17.038;2023-03-31T04:36:44;16.95;;;10.52;;
52354;SDS011;38286;51.156;17.038;2023-03-31T04:39:17;14.27;;;9.75;;
52354;SDS011;38286;51.156;17.038;2023-03-31T04:41:55;12.63;;;9.05;;
52354;SDS011;38286;51.156;17.038;2023-03-31T04:44:22;18.15;;;9.38;;
52354;SDS011;38286;51.156;17.038;2023-03-31T04:46:48;15.65;;;8.35;;
52354;SDS011;38286;51.156;17.038;2023-03-31T04:49:14;12.82;;;8.70;;
52354;SDS011;38286;51.156;17.038;2023-03-31T04:51:40;15.98;;;9.18;;
52354;SDS011;38286;51.156;17.038;2023-03-31T04:54:06;13.75;;;8.95;;
52354;SDS011;38286;51.156;17.038;2023-03-31T04:56:33;15.55;;;9.10;;
52354;SDS011;38286;51.156;17.038;2023-03-31T04:58:59;13.38;;;8.68;;
52354;SDS011;38286;51.156;17.038;2023-03-31T05:01:25;12.80;;;9.00;;
52354;SDS011;38286;51.156;17.038;2023-03-31T05:03:50;15.23;;;9.35;;
52354;SDS011;38286;51.156;17.038;2023-03-31T05:06:17;15.68;;;10.73;;
52354;SDS011;38286;51.156;17.038;2023-03-31T05:08:43;17.60;;;9.20;;
52354;SDS011;38286;51.156;17.038;2023-03-31T05:11:09;14.98;;;9.00;;
52354;SDS011;38286;51.156;17.038;2023-03-31T05:13:36;15.77;;;8.75;;
52354;SDS011;38286;51.156;17.038;2023-03-31T05:16:06;13.68;;;8.50;;
52354;SDS011;38286;51.156;17.038;2023-03-31T05:18:33;16.52;;;10.52;;
52354;SDS011;38286;51.156;17.038;2023-03-31T05:21:09;21.33;;;8.98;;
52354;SDS011;38286;51.156;17.038;2023-03-31T05:23:35;18.30;;;9.55;;
52354;SDS011;38286;51.156;17.038;2023-03-31T05:26:02;14.50;;;8.27;;
52354;SDS011;38286;51.156;17.038;2023-03-31T05:28:28;12.85;;;8.63;;
52354;SDS011;38286;51.156;17.038;2023-03-31T05:30:54;15.35;;;9.50;;
52354;SDS011;38286;51.156;17.038;2023-03-31T05:33:20;14.40;;;8.60;;
52354;SDS011;38286;51.156;17.038;2023-03-31T05:35:46;13.30;;;8.63;;
52354;SDS011;38286;51.156;17.038;2023-03-31T05:38:11;12.32;;;7.80;;
52354;SDS011;38286;51.156;17.038;2023-03-31T05:40:38;14.80;;;7.60;;
52354;SDS011;38286;51.156;17.038;2023-03-31T05:43:03;14.05;;;8.45;;
52354;SDS011;38286;51.156;17.038;2023-03-31T05:45:30;13.85;;;8.30;;
52354;SDS011;38286;51.156;17.038;2023-03-31T05:47:55;15.82;;;8.38;;
52354;SDS011;38286;51.156;17.038;2023-03-31T05:50:22;14.48;;;8.77;;
52354;SDS011;38286;51.156;17.038;2023-03-31T05:52:47;14.60;;;8.75;;
52354;SDS011;38286;51.156;17.038;2023-03-31T05:55:14;13.30;;;8.27;;
52354;SDS011;38286;51.156;17.038;2023-03-31T05:57:40;14.48;;;7.53;;
52354;SDS011;38286;51.156;17.038;2023-03-31T06:00:06;14.18;;;7.72;;
52354;SDS011;38286;51.156;17.038;2023-03-31T06:02:34;13.27;;;7.32;;
52354;SDS011;38286;51.156;17.038;2023-03-31T06:05:01;16.02;;;6.93;;
52354;SDS011;38286;51.156;17.038;2023-03-31T06:07:27;13.25;;;7.00;;
52354;SDS011;38286;51.156;17.038;2023-03-31T06:09:53;12.40;;;6.45;;
52354;SDS011;38286;51.156;17.038;2023-03-31T06:12:19;12.27;;;7.65;;
52354;SDS011;38286;51.156;17.038;2023-03-31T06:14:45;10.50;;;6.72;;
52354;SDS011;38286;51.156;17.038;2023-03-31T06:17:11;12.60;;;6.55;;
52354;SDS011;38286;51.156;17.038;2023-03-31T06:19:37;12.68;;;6.82;;
52354;SDS011;38286;51.156;17.038;2023-03-31T06:22:04;17.17;;;6.90;;
52354;SDS011;38286;51.156;17.038;2023-03-31T06:24:30;14.50;;;6.43;;
52354;SDS011;38286;51.156;17.038;2023-03-31T06:26:56;10.95;;;6.53;;
52354;SDS011;38286;51.156;17.038;2023-03-31T06:29:23;10.95;;;6.85;;
52354;SDS011;38286;51.156;17.038;2023-03-31T06:31:49;9.43;;;6.57;;
52354;SDS011;38286;51.156;17.038;2023-03-31T06:34:15;11.30;;;7.47;;
52354;SDS011;38286;51.156;17.038;2023-03-31T06:36:41;11.85;;;5.93;;
52354;SDS011;38286;51.156;17.038;2023-03-31T06:39:07;13.88;;;7.40;;
52354;SDS011;38286;51.156;17.038;2023-03-31T06:41:33;9.45;;;6.05;;
52354;SDS011;38286;51.156;17.038;2023-03-31T06:43:59;11.05;;;6.38;;
52354;SDS011;38286;51.156;17.038;2023-03-31T06:46:25;9.93;;;6.10;;
52354;SDS011;38286;51.156;17.038;2023-03-31T06:48:51;11.50;;;6.40;;
52354;SDS011;38286;51.156;17.038;2023-03-31T06:51:18;8.77;;;5.63;;
52354;SDS011;38286;51.156;17.038;2023-03-31T06:53:45;9.65;;;5.70;;
52354;SDS011;38286;51.156;17.038;2023-03-31T06:56:11;11.65;;;5.50;;
52354;SDS011;38286;51.156;17.038;2023-03-31T06:58:37;7.38;;;5.47;;
52354;SDS011;38286;51.156;17.038;2023-03-31T07:01:03;11.10;;;5.20;;
52354;SDS011;38286;51.156;17.038;2023-03-31T07:03:30;12.02;;;5.30;;
52354;SDS011;38286;51.156;17.038;2023-03-31T07:05:57;7.90;;;5.13;;
52354;SDS011;38286;51.156;17.038;2023-03-31T07:08:23;10.10;;;5.28;;
52354;SDS011;38286;51.156;17.038;2023-03-31T07:10:52;9.65;;;5.70;;
52354;SDS011;38286;51.156;17.038;2023-03-31T07:13:22;9.73;;;4.68;;
52354;SDS011;38286;51.156;17.038;2023-03-31T07:15:49;11.73;;;4.78;;
52354;SDS011;38286;51.156;17.038;2023-03-31T07:18:16;8.93;;;4.95;;
52354;SDS011;38286;51.156;17.038;2023-03-31T07:20:46;9.20;;;5.25;;
52354;SDS011;38286;51.156;17.038;2023-03-31T07:23:13;10.18;;;5.20;;
52354;SDS011;38286;51.156;17.038;2023-03-31T07:25:39;7.85;;;5.00;;
52354;SDS011;38286;51.156;17.038;2023-03-31T07:28:05;10.38;;;5.40;;
52354;SDS011;38286;51.156;17.038;2023-03-31T07:30:31;9.70;;;5.10;;
52354;SDS011;38286;51.156;17.038;2023-03-31T07:32:58;11.77;;;5.40;;
52354;SDS011;38286;51.156;17.038;2023-03-31T07:35:24;11.07;;;5.95;;
52354;SDS011;38286;51.156;17.038;2023-03-31T07:37:50;10.48;;;6.60;;
52354;SDS011;38286;51.156;17.038;2023-03-31T07:40:20;11.73;;;6.70;;
52354;SDS011;38286;51.156;17.038;2023-03-31T07:42:51;13.02;;;6.15;;
52354;SDS011;38286;51.156;17.038;2023-03-31T07:45:18;12.25;;;6.97;;
52354;SDS011;38286;51.156;17.038;2023-03-31T07:47:45;11.85;;;6.63;;
52354;SDS011;38286;51.156;17.038;2023-03-31T07:50:12;10.05;;;6.40;;
52354;SDS011;38286;51.156;17.038;2023-03-31T07:52:39;11.18;;;6.78;;
52354;SDS011;38286;51.156;17.038;2023-03-31T07:55:05;9.02;;;6.45;;
52354;SDS011;38286;51.156;17.038;2023-03-31T07:57:33;11.85;;;6.93;;
52354;SDS011;38286;51.156;17.038;2023-03-31T07:59:59;12.57;;;6.75;;
52354;SDS011;38286;51.156;17.038;2023-03-31T08:02:26;11.48;;;5.70;;
52354;SDS011;38286;51.156;17.038;2023-03-31T08:04:52;12.85;;;5.88;;
52354;SDS011;38286;51.156;17.038;2023-03-31T08:07:18;10.85;;;5.72;;
52354;SDS011;38286;51.156;17.038;2023-03-31T08:09:45;12.15;;;5.72;;
52354;SDS011;38286;51.156;17.038;2023-03-31T08:12:12;10.52;;;6.07;;
52354;SDS011;38286;51.156;17.038;2023-03-31T08:14:38;11.43;;;6.03;;
52354;SDS011;38286;51.156;17.038;2023-03-31T08:17:04;10.85;;;6.80;;
52354;SDS011;38286;51.156;17.038;2023-03-31T08:19:30;14.88;;;6.65;;
52354;SDS011;38286;51.156;17.038;2023-03-31T08:21:56;10.57;;;6.25;;
52354;SDS011;38286;51.156;17.038;2023-03-31T08:24:22;12.32;;;5.78;;
52354;SDS011;38286;51.156;17.038;2023-03-31T08:26:48;11.70;;;6.80;;
52354;SDS011;38286;51.156;17.038;2023-03-31T08:29:14;10.07;;;6.30;;
52354;SDS011;38286;51.156;17.038;2023-03-31T08:31:41;15.07;;;5.85;;
52354;SDS011;38286;51.156;17.038;2023-03-31T08:34:07;9.60;;;6.10;;
52354;SDS011;38286;51.156;17.038;2023-03-31T08:36:33;8.18;;;5.97;;
52354;SDS011;38286;51.156;17.038;2023-03-31T08:38:59;12.23;;;6.00;;
52354;SDS011;38286;51.156;17.038;2023-03-31T08:41:33;10.73;;;6.07;;
52354;SDS011;38286;51.156;17.038;2023-03-31T08:44:04;10.98;;;6.30;;
52354;SDS011;38286;51.156;17.038;2023-03-31T08:46:33;9.65;;;6.47;;
52354;SDS011;38286;51.156;17.038;2023-03-31T08:49:00;8.50;;;5.90;;
52354;SDS011;38286;51.156;17.038;2023-03-31T08:51:32;8.65;;;5.45;;
52354;SDS011;38286;51.156;17.038;2023-03-31T08:54:08;9.77;;;5.30;;
52354;SDS011;38286;51.156;17.038;2023-03-31T08:56:39;7.72;;;4.75;;
52354;SDS011;38286;51.156;17.038;2023-03-31T08:59:15;8.10;;;5.05;;
52354;SDS011;38286;51.156;17.038;2023-03-31T09:01:55;7.78;;;5.00;;
52354;SDS011;38286;51.156;17.038;2023-03-31T09:07:17;7.75;;;4.88;;
52354;SDS011;38286;51.156;17.038;2023-03-31T09:18:26;8.23;;;5.05;;
52354;SDS011;38286;51.156;17.038;2023-03-31T09:20:58;9.02;;;5.13;;
52354;SDS011;38286;51.156;17.038;2023-03-31T09:23:54;7.85;;;5.30;;
52354;SDS011;38286;51.156;17.038;2023-03-31T09:26:41;8.50;;;4.50;;
52354;SDS011;38286;51.156;17.038;2023-03-31T09:29:14;7.25;;;3.08;;
52354;SDS011;38286;51.156;17.038;2023-03-31T09:31:43;5.68;;;2.85;;
52354;SDS011;38286;51.156;17.038;2023-03-31T09:34:15;8.63;;;3.28;;
52354;SDS011;38286;51.156;17.038;2023-03-31T09:36:44;5.03;;;2.60;;
52354;SDS011;38286;51.156;17.038;2023-03-31T09:39:11;5.18;;;3.03;;
52354;SDS011;38286;51.156;17.038;2023-03-31T09:41:39;5.28;;;2.88;;
52354;SDS011;38286;51.156;17.038;2023-03-31T09:44:30;4.07;;;2.67;;
52354;SDS011;38286;51.156;17.038;2023-03-31T09:47:02;5.45;;;2.45;;
52354;SDS011;38286;51.156;17.038;2023-03-31T09:49:32;4.85;;;2.90;;
52354;SDS011;38286;51.156;17.038;2023-03-31T09:52:06;5.82;;;2.70;;
52354;SDS011;38286;51.156;17.038;2023-03-31T09:54:55;5.25;;;3.13;;
52354;SDS011;38286;51.156;17.038;2023-03-31T10:00:01;9.52;;;4.07;;
52354;SDS011;38286;51.156;17.038;2023-03-31T10:02:53;4.93;;;3.35;;
52354;SDS011;38286;51.156;17.038;2023-03-31T10:05:23;5.07;;;3.38;;
52354;SDS011;38286;51.156;17.038;2023-03-31T10:07:53;5.57;;;3.63;;
52354;SDS011;38286;51.156;17.038;2023-03-31T10:10:45;9.07;;;4.05;;
52354;SDS011;38286;51.156;17.038;2023-03-31T10:13:15;9.13;;;4.00;;
52354;SDS011;38286;51.156;17.038;2023-03-31T10:15:44;7.93;;;4.18;;
52354;SDS011;38286;51.156;17.038;2023-03-31T10:18:16;9.20;;;4.00;;
52354;SDS011;38286;51.156;17.038;2023-03-31T10:23:23;9.27;;;3.92;;
52354;SDS011;38286;51.156;17.038;2023-03-31T10:25:52;6.78;;;3.50;;
52354;SDS011;38286;51.156;17.038;2023-03-31T10:28:20;6.28;;;3.90;;
52354;SDS011;38286;51.156;17.038;2023-03-31T10:30:47;6.68;;;3.70;;
52354;SDS011;38286;51.156;17.038;2023-03-31T10:33:16;9.60;;;3.97;;
52354;SDS011;38286;51.156;17.038;2023-03-31T10:35:48;9.02;;;3.85;;
52354;SDS011;38286;51.156;17.038;2023-03-31T10:38:23;6.80;;;3.28;;
52354;SDS011;38286;51.156;17.038;2023-03-31T10:40:52;7.20;;;3.50;;
52354;SDS011;38286;51.156;17.038;2023-03-31T10:43:23;7.65;;;3.08;;
52354;SDS011;38286;51.156;17.038;2023-03-31T10:45:51;7.70;;;3.10;;
52354;SDS011;38286;51.156;17.038;2023-03-31T10:48:23;6.97;;;3.15;;
52354;SDS011;38286;51.156;17.038;2023-03-31T10:50:57;6.70;;;3.35;;
52354;SDS011;38286;51.156;17.038;2023-03-31T10:53:40;5.00;;;3.03;;
52354;SDS011;38286;51.156;17.038;2023-03-31T10:56:14;9.85;;;3.42;;
52354;SDS011;38286;51.156;17.038;2023-03-31T11:12:33;7.07;;;3.10;;
52354;SDS011;38286;51.156;17.038;2023-03-31T11:15:09;5.50;;;2.50;;
52354;SDS011;38286;51.156;17.038;2023-03-31T11:20:49;6.20;;;2.65;;
52354;SDS011;38286;51.156;17.038;2023-03-31T11:23:26;6.18;;;2.33;;
52354;SDS011;38286;51.156;17.038;2023-03-31T11:26:28;5.03;;;2.30;;
52354;SDS011;38286;51.156;17.038;2023-03-31T11:29:03;6.15;;;2.55;;
52354;SDS011;38286;51.156;17.038;2023-03-31T11:31:51;6.00;;;2.17;;
52354;SDS011;38286;51.156;17.038;2023-03-31T11:38:19;7.05;;;2.25;;
52354;SDS011;38286;51.156;17.038;2023-03-31T11:42:59;5.32;;;2.10;;
52354;SDS011;38286;51.156;17.038;2023-03-31T11:45:28;6.13;;;2.20;;
52354;SDS011;38286;51.156;17.038;2023-03-31T11:48:00;4.75;;;2.08;;
52354;SDS011;38286;51.156;17.038;2023-03-31T11:50:31;5.30;;;2.22;;
52354;SDS011;38286;51.156;17.038;2023-03-31T11:53:06;6.32;;;2.42;;
52354;SDS011;38286;51.156;17.038;2023-03-31T11:55:40;4.65;;;2.05;;
52354;SDS011;38286;51.156;17.038;2023-03-31T11:58:09;5.57;;;2.40;;
52354;SDS011;38286;51.156;17.038;2023-03-31T12:00:43;5.97;;;2.80;;
52354;SDS011;38286;51.156;17.038;2023-03-31T12:06:13;6.18;;;2.40;;
52354;SDS011;38286;51.156;17.038;2023-03-31T12:09:00;4.88;;;2.47;;
52354;SDS011;38286;51.156;17.038;2023-03-31T12:11:52;3.50;;;2.30;;
52354;SDS011;38286;51.156;17.038;2023-03-31T12:14:26;5.55;;;2.13;;
52354;SDS011;38286;51.156;17.038;2023-03-31T12:17:01;9.13;;;2.33;;
52354;SDS011;38286;51.156;17.038;2023-03-31T12:24:58;8.00;;;2.40;;
52354;SDS011;38286;51.156;17.038;2023-03-31T12:27:26;5.03;;;2.00;;
52354;SDS011;38286;51.156;17.038;2023-03-31T12:30:03;4.55;;;2.10;;
52354;SDS011;38286;51.156;17.038;2023-03-31T12:32:37;4.57;;;1.87;;
52354;SDS011;38286;51.156;17.038;2023-03-31T12:35:09;3.42;;;1.75;;
52354;SDS011;38286;51.156;17.038;2023-03-31T12:45:42;5.65;;;2.10;;
52354;SDS011;38286;51.156;17.038;2023-03-31T12:51:11;5.00;;;1.83;;
52354;SDS011;38286;51.156;17.038;2023-03-31T12:54:11;3.88;;;1.60;;
52354;SDS011;38286;51.156;17.038;2023-03-31T12:59:38;6.40;;;1.90;;
52354;SDS011;38286;51.156;17.038;2023-03-31T13:04:35;5.70;;;2.17;;
52354;SDS011;38286;51.156;17.038;2023-03-31T13:07:02;3.70;;;2.38;;
52354;SDS011;38286;51.156;17.038;2023-03-31T13:11:56;7.13;;;2.28;;
52354;SDS011;38286;51.156;17.038;2023-03-31T13:14:30;4.15;;;2.33;;
52354;SDS011;38286;51.156;17.038;2023-03-31T13:17:19;6.45;;;2.63;;
52354;SDS011;38286;51.156;17.038;2023-03-31T13:23:01;4.80;;;2.38;;
52354;SDS011;38286;51.156;17.038;2023-03-31T13:31:05;6.50;;;2.97;;
52354;SDS011;38286;51.156;17.038;2023-03-31T13:36:29;7.10;;;3.25;;
52354;SDS011;38286;51.156;17.038;2023-03-31T13:39:10;9.45;;;3.58;;
52354;SDS011;38286;51.156;17.038;2023-03-31T13:41:52;7.47;;;3.70;;
52354;SDS011;38286;51.156;17.038;2023-03-31T13:58:13;10.55;;;4.25;;
52354;SDS011;38286;51.156;17.038;2023-03-31T14:01:05;9.18;;;4.13;;
52354;SDS011;38286;51.156;17.038;2023-03-31T14:03:57;9.70;;;4.25;;
52354;SDS011;38286;51.156;17.038;2023-03-31T14:06:36;7.50;;;4.00;;
52354;SDS011;38286;51.156;17.038;2023-03-31T14:09:35;11.70;;;4.72;;
52354;SDS011;38286;51.156;17.038;2023-03-31T14:12:01;13.20;;;4.53;;
52354;SDS011;38286;51.156;17.038;2023-03-31T14:14:59;8.88;;;3.85;;
52354;SDS011;38286;51.156;17.038;2023-03-31T14:17:26;9.82;;;4.25;;
52354;SDS011;38286;51.156;17.038;2023-03-31T14:38:38;8.85;;;5.05;;
52354;SDS011;38286;51.156;17.038;2023-03-31T14:41:04;11.73;;;6.50;;
52354;SDS011;38286;51.156;17.038;2023-03-31T14:43:31;13.68;;;7.03;;
52354;SDS011;38286;51.156;17.038;2023-03-31T14:45:59;17.58;;;9.52;;
52354;SDS011;38286;51.156;17.038;2023-03-31T14:48:27;19.38;;;8.80;;
52354;SDS011;38286;51.156;17.038;2023-03-31T14:50:57;20.67;;;8.50;;
52354;SDS011;38286;51.156;17.038;2023-03-31T14:53:26;13.25;;;7.95;;
52354;SDS011;38286;51.156;17.038;2023-03-31T14:56:06;17.35;;;8.45;;
52354;SDS011;38286;51.156;17.038;2023-03-31T14:58:36;12.43;;;7.25;;
52354;SDS011;38286;51.156;17.038;2023-03-31T15:01:06;14.20;;;7.50;;
52354;SDS011;38286;51.156;17.038;2023-03-31T15:03:34;14.65;;;8.25;;
52354;SDS011;38286;51.156;17.038;2023-03-31T15:06:02;14.55;;;8.63;;
52354;SDS011;38286;51.156;17.038;2023-03-31T15:08:28;18.65;;;8.35;;
52354;SDS011;38286;51.156;17.038;2023-03-31T15:11:01;18.20;;;8.40;;
52354;SDS011;38286;51.156;17.038;2023-03-31T15:13:39;12.82;;;6.25;;
52354;SDS011;38286;51.156;17.038;2023-03-31T15:18:53;9.20;;;5.65;;
52354;SDS011;38286;51.156;17.038;2023-03-31T15:21:23;12.52;;;5.70;;
52354;SDS011;38286;51.156;17.038;2023-03-31T15:23:56;11.43;;;5.60;;
52354;SDS011;38286;51.156;17.038;2023-03-31T15:26:25;11.20;;;5.65;;
52354;SDS011;38286;51.156;17.038;2023-03-31T15:28:55;9.65;;;5.50;;
52354;SDS011;38286;51.156;17.038;2023-03-31T15:31:23;17.65;;;6.15;;
52354;SDS011;38286;51.156;17.038;2023-03-31T15:33:51;10.95;;;5.65;;
52354;SDS011;38286;51.156;17.038;2023-03-31T15:36:17;11.18;;;6.03;;
52354;SDS011;38286;51.156;17.038;2023-03-31T15:38:45;12.75;;;6.72;;
52354;SDS011;38286;51.156;17.038;2023-03-31T15:41:12;9.88;;;5.30;;
52354;SDS011;38286;51.156;17.038;2023-03-31T15:46:10;12.98;;;4.95;;
52354;SDS011;38286;51.156;17.038;2023-03-31T15:48:53;9.27;;;5.95;;
52354;SDS011;38286;51.156;17.038;2023-03-31T15:51:25;11.77;;;5.72;;
52354;SDS011;38286;51.156;17.038;2023-03-31T15:53:54;9.33;;;5.83;;
52354;SDS011;38286;51.156;17.038;2023-03-31T15:56:27;11.10;;;6.30;;
52354;SDS011;38286;51.156;17.038;2023-03-31T15:58:57;7.53;;;5.20;;
52354;SDS011;38286;51.156;17.038;2023-03-31T16:01:26;6.10;;;4.57;;
52354;SDS011;38286;51.156;17.038;2023-03-31T16:03:57;6.43;;;3.60;;
52354;SDS011;38286;51.156;17.038;2023-03-31T16:08:55;4.70;;;3.53;;
52354;SDS011;38286;51.156;17.038;2023-03-31T16:11:37;40.72;;;8.15;;
52354;SDS011;38286;51.156;17.038;2023-03-31T16:14:07;8.65;;;3.60;;
52354;SDS011;38286;51.156;17.038;2023-03-31T16:16:38;6.75;;;3.28;;
52354;SDS011;38286;51.156;17.038;2023-03-31T16:19:10;3.65;;;2.53;;
52354;SDS011;38286;51.156;17.038;2023-03-31T16:21:41;5.05;;;2.78;;
52354;SDS011;38286;51.156;17.038;2023-03-31T16:24:08;4.05;;;2.70;;
52354;SDS011;38286;51.156;17.038;2023-03-31T16:26:35;5.07;;;2.65;;
52354;SDS011;38286;51.156;17.038;2023-03-31T16:29:02;4.75;;;2.78;;
52354;SDS011;38286;51.156;17.038;2023-03-31T16:31:33;5.00;;;2.85;;
52354;SDS011;38286;51.156;17.038;2023-03-31T16:34:03;4.78;;;2.85;;
52354;SDS011;38286;51.156;17.038;2023-03-31T16:36:31;5.97;;;2.80;;
52354;SDS011;38286;51.156;17.038;2023-03-31T16:38:58;4.50;;;2.60;;
52354;SDS011;38286;51.156;17.038;2023-03-31T16:41:26;5.88;;;2.97;;
52354;SDS011;38286;51.156;17.038;2023-03-31T16:43:53;7.00;;;2.90;;
52354;SDS011;38286;51.156;17.038;2023-03-31T16:46:20;7.72;;;2.67;;
52354;SDS011;38286;51.156;17.038;2023-03-31T16:48:46;4.90;;;2.90;;
52354;SDS011;38286;51.156;17.038;2023-03-31T16:51:12;4.38;;;2.70;;
52354;SDS011;38286;51.156;17.038;2023-03-31T16:53:38;3.20;;;2.60;;
52354;SDS011;38286;51.156;17.038;2023-03-31T16:56:05;5.40;;;2.85;;
52354;SDS011;38286;51.156;17.038;2023-03-31T16:58:32;4.85;;;2.75;;
52354;SDS011;38286;51.156;17.038;2023-03-31T17:01:00;4.03;;;2.67;;
52354;SDS011;38286;51.156;17.038;2023-03-31T17:03:27;5.53;;;3.42;;
52354;SDS011;38286;51.156;17.038;2023-03-31T17:05:54;6.20;;;3.35;;
52354;SDS011;38286;51.156;17.038;2023-03-31T17:08:22;6.55;;;3.28;;
52354;SDS011;38286;51.156;17.038;2023-03-31T17:11:09;4.78;;;3.33;;
52354;SDS011;38286;51.156;17.038;2023-03-31T17:13:38;4.22;;;2.90;;
52354;SDS011;38286;51.156;17.038;2023-03-31T17:16:05;6.13;;;2.92;;
52354;SDS011;38286;51.156;17.038;2023-03-31T17:18:31;5.95;;;3.15;;
52354;SDS011;38286;51.156;17.038;2023-03-31T17:21:07;4.93;;;3.25;;
52354;SDS011;38286;51.156;17.038;2023-03-31T17:23:35;5.68;;;3.50;;